Time;durP1;ratioP1;P1;durP2;ratioP2;P2;SDS_P1;SDS_P2;PMS_P1;PMS_P2;Temp;Humidity;BMP_temperature;BMP_pressure;BME280_temperature;BME280_humidity;BME280_pressure;Samples;Min_cycle;Max_cycle;Signal;HPM_P1;HPM_P2
2022/06/06 00:00:32;;;;;;;1.50;1.40;;;15.50;99.90;;;;;;5031818;28;20041;-73
2022/06/06 00:02:58;;;;;;;1.73;1.42;;;15.00;99.90;;;;;;5021617;28;20074;-77
2022/06/06 00:05:23;;;;;;;3.40;2.47;;;15.40;99.90;;;;;;5008170;28;20040;-77
2022/06/06 00:07:49;;;;;;;4.20;3.15;;;15.10;99.90;;;;;;5013979;28;20600;-77
2022/06/06 00:10:15;;;;;;;1.92;1.80;;;15.60;99.90;;;;;;5030858;28;20076;-77
2022/06/06 00:12:40;;;;;;;1.73;1.52;;;15.20;99.90;;;;;;4993947;28;20044;-77
2022/06/06 00:15:06;;;;;;;3.55;2.65;;;15.70;99.90;;;;;;5031313;28;20413;-77
2022/06/06 00:17:32;;;;;;;2.45;2.25;;;15.50;99.90;;;;;;5029983;28;20033;-77
2022/06/06 00:19:58;;;;;;;4.90;4.32;;;15.10;99.90;;;;;;5013165;28;20064;-77
2022/06/06 00:22:24;;;;;;;;;;;15.10;99.90;;;;;;5012754;28;20060;-77
2022/06/06 00:24:50;;;;;;;3.28;2.70;;;15.50;99.90;;;;;;5014232;28;19925;-77
2022/06/06 00:27:15;;;;;;;2.40;2.20;;;15.30;99.90;;;;;;5011275;28;20186;-77
2022/06/06 00:29:41;;;;;;;3.58;3.28;;;15.10;99.90;;;;;;5024168;28;20158;-77
2022/06/06 00:34:52;;;;;;;4.57;4.03;;;15.20;99.90;;;;;;5028569;28;20095;-77
2022/06/06 00:37:30;;;;;;;3.40;3.10;;;15.50;99.90;;;;;;5009081;28;20401;-77
2022/06/06 00:39:56;;;;;;;3.47;3.05;;;15.40;99.90;;;;;;5023775;28;20072;-77
2022/06/06 00:42:32;;;;;;;2.85;2.58;;;15.40;99.90;;;;;;5020684;28;20061;-77
2022/06/06 00:45:20;;;;;;;3.22;2.92;;;15.40;99.90;;;;;;5029744;28;20041;-77
2022/06/06 00:47:52;;;;;;;4.35;3.35;;;14.90;99.90;;;;;;5030153;28;20103;-77
2022/06/06 00:50:23;;;;;;;2.63;2.40;;;15.00;99.90;;;;;;5015454;28;20045;-75
2022/06/06 00:52:52;;;;;;;3.10;2.80;;;15.50;99.90;;;;;;5028627;28;20113;-75
2022/06/06 00:55:25;;;;;;;2.95;2.65;;;15.40;99.90;;;;;;5010493;28;20037;-75
2022/06/06 00:58:16;;;;;;;2.95;2.50;;;15.40;99.90;;;;;;5020520;28;20109;-76
2022/06/06 01:00:43;;;;;;;5.15;3.50;;;15.30;99.90;;;;;;5026622;28;20071;-77
2022/06/06 01:03:12;;;;;;;4.03;3.45;;;15.40;99.90;;;;;;5028556;28;20049;-77
2022/06/06 01:05:40;;;;;;;3.55;2.67;;;15.30;99.90;;;;;;5013054;28;20041;-77
2022/06/06 01:08:07;;;;;;;3.33;2.33;;;15.50;99.90;;;;;;5029821;28;20072;-77
2022/06/06 01:10:34;;;;;;;3.88;2.67;;;15.50;99.90;;;;;;5027922;28;20406;-76
2022/06/06 01:13:01;;;;;;;4.15;3.63;;;15.00;99.90;;;;;;5014414;28;20056;-77
2022/06/06 01:15:38;;;;;;;4.88;3.55;;;15.10;99.90;;;;;;5019719;28;20038;-76
2022/06/06 01:18:34;;;;;;;5.38;4.25;;;15.00;99.90;;;;;;5027971;28;20045;-77
2022/06/06 01:21:29;;;;;;;9.90;6.07;;;14.90;99.90;;;;;;5001063;28;20522;-76
2022/06/06 01:24:29;;;;;;;9.55;6.50;;;15.20;99.90;;;;;;4966845;28;20058;-77
2022/06/06 01:27:26;;;;;;;7.63;4.85;;;14.90;99.90;;;;;;5020468;28;20499;-77
2022/06/06 01:30:01;;;;;;;;;;;14.70;99.90;;;;;;5003323;28;20057;-72
2022/06/06 01:32:29;;;;;;;8.23;5.75;;;15.20;99.90;;;;;;5028404;28;19964;-71
2022/06/06 01:34:55;;;;;;;10.23;6.35;;;15.20;99.90;;;;;;5026354;28;20034;-71
2022/06/06 01:37:39;;;;;;;8.05;6.28;;;15.10;99.90;;;;;;5004915;28;20046;-70
2022/06/06 01:40:11;;;;;;;8.77;6.18;;;15.00;99.90;;;;;;5027398;28;20041;-69
2022/06/06 01:42:48;;;;;;;12.18;7.45;;;14.50;99.90;;;;;;5012022;28;20044;-69
2022/06/06 01:45:33;;;;;;;8.82;6.63;;;14.40;99.90;;;;;;5029441;28;20042;-71
2022/06/06 01:48:08;;;;;;;10.05;6.13;;;14.80;99.90;;;;;;5020135;28;20041;-71
2022/06/06 01:50:39;;;;;;;9.25;6.68;;;14.80;99.90;;;;;;5029181;28;20375;-71
2022/06/06 01:53:09;;;;;;;6.78;5.25;;;14.50;99.90;;;;;;4999468;28;20372;-71
2022/06/06 01:55:38;;;;;;;7.55;4.53;;;14.20;99.90;;;;;;5002974;28;20038;-72
2022/06/06 01:58:11;;;;;;;8.15;6.03;;;14.10;99.90;;;;;;5007687;28;20602;-72
2022/06/06 02:00:38;;;;;;;7.10;5.32;;;14.10;99.90;;;;;;5028302;28;20041;-72
2022/06/06 02:03:05;;;;;;;9.43;6.00;;;14.40;99.90;;;;;;5005285;28;20468;-71
2022/06/06 02:05:31;;;;;;;6.95;5.50;;;14.70;99.90;;;;;;5009473;28;20048;-72
2022/06/06 02:07:57;;;;;;;7.43;5.47;;;14.70;99.90;;;;;;5028970;28;20486;-72
2022/06/06 02:10:23;;;;;;;7.22;4.85;;;14.50;99.90;;;;;;5012024;28;20063;-71
2022/06/06 02:12:49;;;;;;;10.18;4.85;;;14.60;99.90;;;;;;5025950;28;20060;-71
2022/06/06 02:15:18;;;;;;;6.97;4.53;;;14.30;99.90;;;;;;5012550;28;20167;-75
2022/06/06 02:17:45;;;;;;;7.55;5.35;;;14.40;99.90;;;;;;5028906;28;20138;-77
2022/06/06 02:20:12;;;;;;;;;;;14.30;99.90;;;;;;5017889;28;20060;-77
2022/06/06 02:22:38;;;;;;;;;;;14.40;99.90;;;;;;5028701;28;20325;-77
2022/06/06 02:25:06;;;;;;;6.35;3.90;;;14.30;99.90;;;;;;5024509;28;19921;-78
2022/06/06 02:27:33;;;;;;;6.10;3.55;;;13.80;99.90;;;;;;5003496;28;20052;-76
2022/06/06 02:29:59;;;;;;;6.15;3.10;;;13.90;99.90;;;;;;5031867;28;20045;-72
2022/06/06 02:32:25;;;;;;;4.95;3.38;;;13.80;99.90;;;;;;5025995;28;20045;-71
2022/06/06 02:34:51;;;;;;;6.85;3.03;;;14.30;99.90;;;;;;5028398;28;20049;-78
2022/06/06 02:37:17;;;;;;;6.15;2.95;;;13.70;99.90;;;;;;5023449;28;20096;-77
2022/06/06 02:39:43;;;;;;;4.95;2.80;;;14.10;99.90;;;;;;5028285;28;20041;-77
2022/06/06 02:42:09;;;;;;;3.65;2.50;;;13.70;99.90;;;;;;5010031;28;20038;-76
2022/06/06 02:44:35;;;;;;;;;;;13.70;99.90;;;;;;5014023;28;20124;-76
2022/06/06 02:47:01;;;;;;;4.70;2.95;;;14.20;99.90;;;;;;5018012;28;20012;-72
2022/06/06 02:49:26;;;;;;;4.63;2.83;;;13.60;99.90;;;;;;5035011;28;20045;-71
2022/06/06 02:51:52;;;;;;;4.82;2.92;;;13.60;99.90;;;;;;5008471;28;20038;-71
2022/06/06 02:54:18;;;;;;;4.90;3.10;;;13.50;99.90;;;;;;5028723;28;20053;-71
2022/06/06 02:56:44;;;;;;;4.53;2.95;;;13.80;99.90;;;;;;5019652;28;20140;-71
2022/06/06 02:59:11;;;;;;;5.10;3.40;;;13.50;99.90;;;;;;5011144;28;20416;-71
2022/06/06 03:01:37;;;;;;;4.18;3.10;;;13.60;99.90;;;;;;5028500;28;20080;-71
2022/06/06 03:04:02;;;;;;;5.10;3.10;;;13.70;99.90;;;;;;5031832;28;20517;-71
2022/06/06 03:06:46;;;;;;;6.45;3.22;;;14.00;99.90;;;;;;5028342;28;20077;-71
2022/06/06 03:09:21;;;;;;;5.78;2.78;;;13.60;99.90;;;;;;5024118;28;20470;-71
2022/06/06 03:11:50;;;;;;;4.90;2.85;;;14.00;99.90;;;;;;5030688;28;20128;-70
2022/06/06 03:14:21;;;;;;;4.95;3.05;;;14.00;99.90;;;;;;5028730;28;20053;-70
2022/06/06 03:23:04;;;;;;;5.18;3.30;;;13.60;99.90;;;;;;5032136;28;20075;-71
2022/06/06 03:25:52;;;;;;;6.10;3.70;;;14.00;99.90;;;;;;5031952;28;20716;-71
2022/06/06 03:28:39;;;;;;;5.45;3.50;;;13.50;99.90;;;;;;5026812;28;20124;-71
2022/06/06 03:31:40;;;;;;;5.57;3.83;;;13.90;99.90;;;;;;5034105;28;20049;-70
2022/06/06 03:34:33;;;;;;;5.70;4.00;;;14.00;99.90;;;;;;5011553;28;20049;-71
2022/06/06 03:36:59;;;;;;;4.68;3.47;;;13.90;99.90;;;;;;5035514;28;20049;-70
2022/06/06 03:39:31;;;;;;;6.90;3.25;;;13.90;99.90;;;;;;5031566;28;20152;-70
2022/06/06 03:41:56;;;;;;;4.88;3.08;;;14.00;99.90;;;;;;5032323;28;20049;-70
2022/06/06 03:44:25;;;;;;;4.25;3.80;;;13.70;99.90;;;;;;5017197;28;20045;-71
2022/06/06 03:47:20;;;;;;;6.05;3.80;;;13.60;99.90;;;;;;5021130;28;20132;-71
2022/06/06 03:50:13;;;;;;;6.18;3.35;;;13.50;99.90;;;;;;5031244;28;20042;-75
2022/06/06 03:52:50;;;;;;;4.95;2.92;;;14.00;99.90;;;;;;5032393;28;20081;-75
2022/06/06 03:55:35;;;;;;;4.97;2.90;;;14.00;99.90;;;;;;5035225;28;20060;-75
2022/06/06 03:58:03;;;;;;;6.15;2.90;;;14.00;99.90;;;;;;5027549;28;20542;-74
2022/06/06 04:00:31;;;;;;;4.75;2.88;;;13.90;99.90;;;;;;5029241;28;20033;-70
2022/06/06 04:02:58;;;;;;;2.92;2.60;;;13.90;99.90;;;;;;5028645;28;20136;-70
2022/06/06 04:05:24;;;;;;;4.13;2.88;;;14.00;99.90;;;;;;5028982;28;20084;-70
2022/06/06 04:07:53;;;;;;;3.65;2.85;;;14.00;99.90;;;;;;5030419;28;20045;-71
2022/06/06 04:10:22;;;;;;;3.40;2.38;;;13.90;99.90;;;;;;5034948;28;20048;-74
2022/06/06 04:13:14;;;;;;;4.88;2.88;;;13.90;99.90;;;;;;5029513;28;20522;-74
2022/06/06 04:16:00;;;;;;;3.58;2.80;;;13.40;99.90;;;;;;5013259;28;20203;-73
2022/06/06 04:19:11;;;;;;;3.67;2.90;;;13.50;99.90;;;;;;5014732;28;20546;-75
2022/06/06 04:21:59;;;;;;;3.45;2.47;;;13.60;99.90;;;;;;5009053;28;20045;-74
2022/06/06 04:24:37;;;;;;;3.80;2.45;;;13.50;99.90;;;;;;5037362;28;20053;-74
2022/06/06 04:27:17;;;;;;;2.20;2.00;;;13.80;99.90;;;;;;5030486;28;20470;-74
2022/06/06 04:30:04;;;;;;;2.47;2.20;;;13.50;99.90;;;;;;5029696;28;20053;-74
2022/06/06 04:33:06;;;;;;;2.88;2.13;;;13.60;99.90;;;;;;5024671;28;20052;-74
2022/06/06 04:35:59;;;;;;;2.55;2.20;;;13.70;99.90;;;;;;5021339;28;21235;-74
2022/06/06 04:38:34;;;;;;;2.88;2.42;;;13.50;99.90;;;;;;5020322;28;20053;-74
2022/06/06 04:41:24;;;;;;;1.90;1.70;;;14.00;99.90;;;;;;5033890;28;20038;-74
2022/06/06 04:44:28;;;;;;;2.83;1.95;;;14.00;99.90;;;;;;5039832;28;20050;-74
2022/06/06 04:47:04;;;;;;;2.45;2.17;;;13.90;99.90;;;;;;5009280;28;20050;-73
2022/06/06 04:49:31;;;;;;;2.00;1.85;;;13.90;99.90;;;;;;5044957;28;20048;-74
2022/06/06 04:51:59;;;;;;;1.80;1.63;;;13.60;99.90;;;;;;5032570;28;20056;-74
2022/06/06 04:54:25;;;;;;;1.55;1.40;;;14.00;99.90;;;;;;5030156;28;20049;-74
2022/06/06 04:56:52;;;;;;;1.40;1.30;;;13.60;99.90;;;;;;5031436;28;20443;-73
2022/06/06 04:59:21;;;;;;;1.42;1.10;;;13.60;99.90;;;;;;5013546;28;20041;-74
2022/06/06 05:01:47;;;;;;;1.30;1.20;;;14.00;99.90;;;;;;5016823;28;20135;-74
2022/06/06 05:04:12;;;;;;;1.27;1.15;;;13.80;99.90;;;;;;5038025;28;20049;-74
2022/06/06 05:06:55;;;;;;;1.27;1.17;;;13.80;99.90;;;;;;5033549;28;20112;-73
2022/06/06 05:09:41;;;;;;;1.55;1.40;;;14.00;99.90;;;;;;5038526;28;20195;-73
2022/06/06 05:12:22;;;;;;;1.70;1.52;;;14.00;99.90;;;;;;5041005;28;20045;-74
2022/06/06 05:15:20;;;;;;;3.20;1.90;;;13.50;99.90;;;;;;5041956;28;20044;-75
2022/06/06 05:18:12;;;;;;;3.28;2.20;;;13.50;99.90;;;;;;5012001;28;20044;-74
2022/06/06 05:20:52;;;;;;;2.88;2.40;;;13.80;99.90;;;;;;5030048;28;20111;-74
2022/06/06 05:23:45;;;;;;;3.10;2.28;;;13.60;99.90;;;;;;5013399;28;20060;-74
2022/06/06 05:26:25;;;;;;;2.53;2.13;;;13.30;99.90;;;;;;5035724;28;20490;-74
2022/06/06 05:28:53;;;;;;;3.17;2.35;;;13.80;99.90;;;;;;5036425;28;20045;-72
2022/06/06 05:31:50;;;;;;;2.40;2.10;;;13.40;99.90;;;;;;5042674;28;20049;-73
2022/06/06 05:34:24;;;;;;;3.13;2.60;;;13.70;99.90;;;;;;5028307;28;20041;-74
2022/06/06 05:37:02;;;;;;;3.75;2.78;;;13.60;99.90;;;;;;5025188;28;20087;-74
2022/06/06 05:39:45;;;;;;;4.25;2.90;;;13.70;99.90;;;;;;5025907;28;20390;-73
2022/06/06 05:42:14;;;;;;;6.00;3.40;;;13.80;99.90;;;;;;5020588;28;20060;-74
2022/06/06 05:44:54;;;;;;;5.43;3.80;;;13.40;99.90;;;;;;5027666;28;20549;-73
2022/06/06 05:47:45;;;;;;;4.32;3.42;;;13.80;99.90;;;;;;5027725;28;20041;-74
2022/06/06 05:50:34;;;;;;;4.93;3.72;;;13.80;99.90;;;;;;4999972;28;20045;-73
2022/06/06 05:53:42;;;;;;;6.57;3.90;;;13.60;99.90;;;;;;5028633;28;20052;-74
2022/06/06 05:56:43;;;;;;;9.30;4.88;;;13.30;99.90;;;;;;5021005;28;20128;-74
2022/06/06 05:59:17;;;;;;;7.60;4.82;;;13.30;99.90;;;;;;5029689;28;20125;-71
2022/06/06 06:02:20;;;;;;;8.10;4.88;;;13.20;99.90;;;;;;5028745;28;20116;-71
2022/06/06 06:05:18;;;;;;;7.30;4.20;;;13.80;99.90;;;;;;5028732;28;20045;-72
2022/06/06 06:08:07;;;;;;;7.65;4.38;;;13.50;99.90;;;;;;5019584;28;20065;-70
2022/06/06 06:10:50;;;;;;;5.53;3.83;;;13.30;99.90;;;;;;5040244;28;20049;-71
2022/06/06 06:13:31;;;;;;;5.93;3.60;;;13.60;99.90;;;;;;5026619;28;20046;-71
2022/06/06 06:16:00;;;;;;;6.15;3.78;;;13.30;99.90;;;;;;5012631;28;20135;-70
2022/06/06 06:19:06;;;;;;;5.72;3.40;;;13.70;99.90;;;;;;5030069;28;20080;-70
2022/06/06 06:21:47;;;;;;;6.95;4.00;;;13.60;99.90;;;;;;4980790;28;20053;-71
2022/06/06 06:24:19;;;;;;;6.03;3.60;;;13.30;99.90;;;;;;5024892;28;20358;-73
2022/06/06 06:26:46;;;;;;;7.30;4.47;;;13.10;99.90;;;;;;5027666;28;20148;-70
2022/06/06 06:29:12;;;;;;;6.88;4.78;;;13.10;99.90;;;;;;5039494;28;20056;-71
2022/06/06 06:32:01;;;;;;;7.53;4.65;;;13.60;99.90;;;;;;5027878;28;20056;-71
2022/06/06 06:35:04;;;;;;;8.30;4.50;;;13.30;99.90;;;;;;4998678;28;20053;-71
2022/06/06 06:37:54;;;;;;;6.10;4.13;;;13.00;99.90;;;;;;5041516;28;20102;-71
2022/06/06 06:40:43;;;;;;;6.70;3.67;;;13.60;99.90;;;;;;5029741;28;20087;-71
2022/06/06 06:43:15;;;;;;;6.10;3.78;;;13.10;99.90;;;;;;5025960;28;20526;-71
2022/06/06 06:45:52;;;;;;;3.42;2.60;;;13.20;99.90;;;;;;5040112;28;20041;-71
2022/06/06 06:48:26;;;;;;;4.57;3.03;;;13.20;99.90;;;;;;5028200;28;20141;-72
2022/06/06 06:51:03;;;;;;;3.30;2.47;;;13.60;99.90;;;;;;5027049;28;20095;-70
2022/06/06 06:54:11;;;;;;;4.60;2.53;;;13.60;99.90;;;;;;5027869;28;20092;-71
2022/06/06 06:56:55;;;;;;;3.33;2.25;;;13.40;99.90;;;;;;4996005;28;20088;-71
2022/06/06 06:59:40;;;;;;;4.28;2.38;;;13.40;99.90;;;;;;5029521;28;20044;-71
2022/06/06 07:08:34;;;;;;;4.97;2.35;;;13.80;99.90;;;;;;5025626;28;20057;-71
2022/06/06 07:11:38;;;;;;;4.82;2.33;;;13.80;99.90;;;;;;5034362;28;20770;-72
2022/06/06 07:14:15;;;;;;;2.88;2.22;;;14.10;99.90;;;;;;5000206;28;20128;-72
2022/06/06 07:16:41;;;;;;;3.33;2.50;;;14.20;99.90;;;;;;5025683;28;20055;-71
2022/06/06 07:19:18;;;;;;;;;;;13.90;99.90;;;;;;5013802;28;20044;-72
2022/06/06 07:21:46;;;;;;;6.15;2.50;;;14.20;99.90;;;;;;5027135;28;20333;-73
2022/06/06 07:24:16;;;;;;;4.18;2.17;;;13.90;99.90;;;;;;5031183;28;20128;-72
2022/06/06 07:26:43;;;;;;;5.75;2.40;;;14.20;99.90;;;;;;5030264;28;20045;-72
2022/06/06 07:29:12;;;;;;;5.95;2.38;;;14.00;99.90;;;;;;5014536;28;20045;-72
2022/06/06 07:31:57;;;;;;;5.75;2.50;;;14.10;99.90;;;;;;5031209;28;20034;-69
2022/06/06 07:34:41;;;;;;;7.28;2.95;;;14.10;99.90;;;;;;5027116;28;20073;-71
2022/06/06 07:37:37;;;;;;;6.47;2.63;;;14.20;99.90;;;;;;5032916;28;20111;-71
2022/06/06 07:40:24;;;;;;;7.15;2.25;;;14.30;99.90;;;;;;5019931;28;20045;-71
2022/06/06 07:43:31;;;;;;;3.00;2.17;;;14.50;99.90;;;;;;5039926;28;20427;-71
2022/06/06 07:46:10;;;;;;;3.53;1.80;;;14.70;99.90;;;;;;5042078;28;20556;-71
2022/06/06 07:49:06;;;;;;;2.83;1.80;;;14.60;99.90;;;;;;5022063;28;20490;-70
2022/06/06 07:52:01;;;;;;;2.65;1.55;;;14.50;99.90;;;;;;5020687;28;20049;-69
2022/06/06 07:54:26;;;;;;;4.57;1.95;;;14.70;99.90;;;;;;5036988;28;20147;-71
2022/06/06 07:56:58;;;;;;;4.05;1.88;;;14.80;99.90;;;;;;5030247;28;20178;-71
2022/06/06 07:59:50;;;;;;;4.05;1.98;;;14.90;99.90;;;;;;5029104;28;20037;-70
2022/06/06 08:02:38;;;;;;;4.03;1.92;;;15.00;99.90;;;;;;5026441;28;20132;-74
2022/06/06 08:05:28;;;;;;;3.28;1.83;;;15.20;99.90;;;;;;5029122;28;20114;-74
2022/06/06 08:08:35;;;;;;;6.90;2.33;;;15.30;99.90;;;;;;5024784;28;20484;-75
2022/06/06 08:11:18;;;;;;;3.45;2.20;;;15.40;99.90;;;;;;4980504;28;20089;-69
2022/06/06 08:13:56;;;;;;;4.28;1.90;;;15.40;99.90;;;;;;5030207;28;20205;-69
2022/06/06 08:16:33;;;;;;;2.30;1.77;;;15.30;99.90;;;;;;5025597;28;20124;-69
2022/06/06 08:19:17;;;;;;;5.07;2.60;;;15.30;99.90;;;;;;5022003;28;20052;-70
2022/06/06 08:21:47;;;;;;;4.78;2.75;;;15.40;99.90;;;;;;5013129;28;20045;-70
2022/06/06 08:24:24;;;;;;;4.43;2.20;;;15.30;99.90;;;;;;5022706;28;20037;-70
2022/06/06 08:26:50;;;;;;;;;;;15.30;99.90;;;;;;5025334;28;20037;-70
2022/06/06 08:29:18;;;;;;;7.28;2.60;;;15.20;99.90;;;;;;5012923;28;20329;-70
2022/06/06 08:31:44;;;;;;;4.40;2.50;;;15.20;99.90;;;;;;5028092;28;20120;-70
2022/06/06 08:34:11;;;;;;;4.68;2.65;;;15.30;99.90;;;;;;5018106;28;20041;-69
2022/06/06 08:36:59;;;;;;;5.43;2.67;;;15.30;99.90;;;;;;5021846;28;20045;-70
2022/06/06 08:40:01;;;;;;;5.00;3.30;;;15.50;99.90;;;;;;5022774;28;20132;-70
2022/06/06 08:42:33;;;;;;;7.18;3.67;;;15.90;99.90;;;;;;5028496;28;20053;-70
2022/06/06 08:45:21;;;;;;;5.22;3.20;;;16.20;99.90;;;;;;5027573;28;20033;-69
2022/06/06 08:48:22;;;;;;;6.35;3.20;;;16.60;99.90;;;;;;5011145;28;20098;-69
2022/06/06 08:51:04;;;;;;;6.05;3.00;;;16.80;99.90;;;;;;5016361;28;20145;-70
2022/06/06 08:53:48;;;;;;;6.07;3.20;;;16.60;99.90;;;;;;5010238;28;20731;-70
2022/06/06 08:56:45;;;;;;;6.47;3.35;;;16.30;99.90;;;;;;5022010;28;20136;-70
2022/06/06 08:59:47;;;;;;;4.43;2.47;;;15.90;99.90;;;;;;5012665;28;20042;-70
2022/06/06 09:02:50;;;;;;;4.30;1.80;;;15.90;99.90;;;;;;5011905;28;20104;-70
2022/06/06 09:05:28;;;;;;;4.05;2.08;;;15.90;99.90;;;;;;4998169;28;20080;-70
2022/06/06 09:08:00;;;;;;;5.25;2.33;;;15.80;99.90;;;;;;5007356;28;20467;-70
2022/06/06 09:10:41;;;;;;;3.97;1.98;;;15.70;99.90;;;;;;5012740;28;20116;-69
2022/06/06 09:13:43;;;;;;;3.75;1.80;;;15.60;99.90;;;;;;5016297;28;20037;-69
2022/06/06 09:16:32;;;;;;;3.38;1.80;;;15.50;99.90;;;;;;5026198;28;20091;-69
2022/06/06 09:19:19;;;;;;;3.60;2.30;;;15.50;99.90;;;;;;5022789;28;20120;-69
2022/06/06 09:21:57;;;;;;;2.67;1.85;;;15.50;99.90;;;;;;5020052;28;20045;-70
2022/06/06 09:24:32;;;;;;;3.53;2.05;;;15.50;99.90;;;;;;5022922;28;20483;-70
2022/06/06 09:27:20;;;;;;;5.65;2.00;;;15.50;99.90;;;;;;5023723;28;20037;-76
2022/06/06 09:30:02;;;;;;;4.35;2.25;;;15.60;99.90;;;;;;5015338;28;20049;-76
2022/06/06 09:33:01;;;;;;;4.07;2.00;;;16.40;99.90;;;;;;4999408;28;20041;-77
2022/06/06 09:35:39;;;;;;;6.13;2.53;;;16.70;99.90;;;;;;5011191;28;20053;-77
2022/06/06 09:38:15;;;;;;;5.15;2.13;;;16.80;99.90;;;;;;5016533;28;20054;-76
2022/06/06 09:41:15;;;;;;;4.25;1.95;;;17.00;99.90;;;;;;5017772;28;20052;-75
2022/06/06 09:43:58;;;;;;;3.65;1.88;;;17.00;99.90;;;;;;5015613;28;20128;-77
2022/06/06 09:46:48;;;;;;;4.60;2.00;;;16.90;99.90;;;;;;5024389;28;20045;-76
2022/06/06 09:49:51;;;;;;;2.33;1.58;;;16.60;99.90;;;;;;5020626;28;20038;-76
2022/06/06 09:52:26;;;;;;;3.17;1.67;;;16.70;99.90;;;;;;5017642;28;20067;-76
2022/06/06 10:01:00;;;;;;;;;;;16.90;99.90;;;;;;5021020;28;20442;-71
2022/06/06 10:03:59;;;;;;;3.45;1.50;;;17.30;99.90;;;;;;5018426;28;20397;-71
2022/06/06 10:06:44;;;;;;;4.85;1.40;;;17.60;99.90;;;;;;5007517;28;20355;-71
2022/06/06 10:09:18;;;;;;;2.85;1.08;;;17.30;99.90;;;;;;5011988;28;20052;-71
2022/06/06 10:12:15;;;;;;;4.88;1.20;;;17.40;99.90;;;;;;5019871;28;20073;-72
2022/06/06 10:14:44;;;;;;;5.23;1.50;;;17.60;99.90;;;;;;5020378;28;20091;-72
2022/06/06 10:17:29;;;;;;;4.47;1.20;;;17.70;99.90;;;;;;5018701;28;20292;-71
2022/06/06 10:20:25;;;;;;;2.88;1.08;;;17.70;99.90;;;;;;5022163;28;20107;-71
2022/06/06 10:23:12;;;;;;;3.63;1.10;;;18.20;99.90;;;;;;5023538;28;20033;-71
2022/06/06 10:25:59;;;;;;;3.47;1.30;;;18.30;99.90;;;;;;5014549;28;20045;-70
2022/06/06 10:28:50;;;;;;;5.10;1.17;;;18.30;99.90;;;;;;5024670;28;20037;-70
2022/06/06 10:31:37;;;;;;;2.20;0.80;;;18.20;99.90;;;;;;5026355;28;20037;-70
2022/06/06 10:34:18;;;;;;;4.07;1.10;;;18.60;99.90;;;;;;5027206;28;20047;-71
2022/06/06 10:37:10;;;;;;;3.67;1.13;;;18.80;99.90;;;;;;5013575;28;20180;-76
2022/06/06 10:39:36;;;;;;;4.40;1.20;;;19.10;99.90;;;;;;5050004;28;20462;-76
2022/06/06 10:42:10;;;;;;;6.55;1.23;;;19.40;99.90;;;;;;5037953;28;20041;-77
2022/06/06 10:44:39;;;;;;;4.57;1.45;;;19.10;99.90;;;;;;5028409;28;20371;-77
2022/06/06 10:47:26;;;;;;;3.55;0.90;;;18.90;99.90;;;;;;5013910;28;20129;-76
2022/06/06 10:50:11;;;;;;;2.70;0.70;;;18.60;99.90;;;;;;5030182;28;20041;-76
2022/06/06 10:53:04;;;;;;;3.30;0.90;;;18.40;99.90;;;;;;5042888;28;20467;-76
2022/06/06 10:55:35;;;;;;;1.40;0.70;;;18.50;99.90;;;;;;5019080;28;20077;-76
2022/06/06 10:58:39;;;;;;;3.10;0.93;;;18.70;99.90;;;;;;5030194;28;20041;-76
2022/06/06 11:01:18;;;;;;;3.83;1.20;;;18.70;99.90;;;;;;5034061;28;20061;-77
2022/06/06 11:03:53;;;;;;;2.97;0.93;;;18.60;99.90;;;;;;5023076;28;20041;-77
2022/06/06 11:06:43;;;;;;;2.80;0.80;;;18.50;99.90;;;;;;5048684;28;20371;-76
2022/06/06 11:09:27;;;;;;;2.08;1.00;;;18.40;99.90;;;;;;5038118;28;20478;-76
2022/06/06 11:12:24;;;;;;;2.40;0.70;;;18.70;99.90;;;;;;5043101;28;20045;-76
2022/06/06 11:14:52;;;;;;;4.95;1.00;;;18.70;99.90;;;;;;5028665;28;20041;-76
2022/06/06 11:17:49;;;;;;;4.35;0.80;;;18.70;99.90;;;;;;5028296;28;20447;-77
2022/06/06 11:20:52;;;;;;;2.95;1.10;;;18.40;99.90;;;;;;5044995;28;20060;-75
2022/06/06 11:23:38;;;;;;;2.45;0.85;;;18.20;99.90;;;;;;5035896;28;20053;-76
2022/06/06 11:26:22;;;;;;;3.72;1.02;;;19.00;99.90;;;;;;5018702;28;20060;-77
2022/06/06 11:29:26;;;;;;;3.25;0.77;;;19.80;99.90;;;;;;5046436;28;20133;-76
2022/06/06 11:31:51;;;;;;;3.83;0.80;;;19.70;99.90;;;;;;4991558;28;20096;-76
2022/06/06 11:34:30;;;;;;;;;;;19.10;99.90;;;;;;5030894;28;20076;-77
2022/06/06 11:37:20;;;;;;;3.13;0.80;;;18.60;99.90;;;;;;5044745;28;20304;-76
2022/06/06 11:40:04;;;;;;;4.22;0.93;;;18.00;99.90;;;;;;5013266;28;20046;-77
2022/06/06 11:42:50;;;;;;;2.80;0.90;;;17.60;99.90;;;;;;5046276;28;20037;-70
2022/06/06 11:45:48;;;;;;;3.67;0.82;;;17.60;99.90;;;;;;5023807;28;20544;-70
2022/06/06 11:49:04;;;;;;;1.33;0.75;;;17.90;99.90;;;;;;5045336;28;20045;-71
2022/06/06 11:52:00;;;;;;;3.22;0.70;;;18.10;99.90;;;;;;5013053;28;20049;-71
2022/06/06 11:55:43;;;;;;;2.90;1.03;;;17.90;99.90;;;;;;5001546;28;20042;-70
2022/06/06 11:58:17;;;;;;;1.67;0.80;;;17.90;99.90;;;;;;4920484;29;20133;-71
2022/06/06 12:01:01;;;;;;;2.63;1.00;;;17.90;99.90;;;;;;4898333;29;20048;-71
2022/06/06 12:04:10;;;;;;;3.47;0.80;;;17.80;99.90;;;;;;4991188;28;20053;-71
2022/06/06 12:07:19;;;;;;;2.22;0.77;;;17.70;99.90;;;;;;5029978;28;20044;-71
2022/06/06 12:09:46;;;;;;;1.77;0.60;;;17.50;99.90;;;;;;5028330;28;20042;-71
2022/06/06 12:12:33;;;;;;;1.85;0.90;;;17.30;99.90;;;;;;5020278;28;20450;-71
2022/06/06 12:14:58;;;;;;;;;;;17.20;99.90;;;;;;5023710;28;20513;-71
2022/06/06 12:18:09;;;;;;;2.70;0.70;;;17.20;99.90;;;;;;5020243;28;19921;-71
2022/06/06 12:20:59;;;;;;;2.80;0.80;;;17.30;99.90;;;;;;5003010;28;20081;-71
2022/06/06 12:23:56;;;;;;;2.30;1.00;;;17.50;99.90;;;;;;5020189;28;20778;-71
2022/06/06 12:26:56;;;;;;;4.35;1.00;;;17.80;99.90;;;;;;5012605;28;20092;-71
2022/06/06 12:29:27;;;;;;;3.60;1.00;;;18.10;99.90;;;;;;5023588;28;20049;-71
2022/06/06 12:32:14;;;;;;;2.75;1.08;;;18.20;99.90;;;;;;5013938;28;20563;-71
2022/06/06 12:34:45;;;;;;;2.22;0.85;;;18.10;99.90;;;;;;5012391;28;20045;-71
2022/06/06 12:37:20;;;;;;;3.33;1.00;;;17.80;99.90;;;;;;5018757;28;20053;-71
2022/06/06 12:40:05;;;;;;;2.70;0.80;;;17.40;99.90;;;;;;5013156;28;20120;-77
2022/06/06 12:42:35;;;;;;;2.40;0.77;;;16.90;99.90;;;;;;5014550;28;20041;-76
2022/06/06 12:45:20;;;;;;;2.58;0.90;;;16.40;99.90;;;;;;5030651;28;20065;-76
2022/06/06 12:48:10;;;;;;;3.13;0.90;;;16.20;99.90;;;;;;5028229;28;20130;-77
2022/06/06 12:51:06;;;;;;;3.90;0.80;;;15.90;99.90;;;;;;5030474;28;20037;-76
2022/06/06 12:53:49;;;;;;;4.25;1.33;;;15.70;99.90;;;;;;5030148;28;20044;-77
2022/06/06 12:56:37;;;;;;;3.63;0.82;;;15.60;99.90;;;;;;5022776;28;20044;-76
2022/06/06 12:59:03;;;;;;;3.55;1.10;;;15.40;99.90;;;;;;5015706;28;20042;-76
2022/06/06 13:02:08;;;;;;;1.92;0.90;;;15.30;99.90;;;;;;5027105;28;20410;-76
2022/06/06 13:05:12;;;;;;;2.83;0.82;;;15.30;99.90;;;;;;5030863;28;20087;-76
2022/06/06 13:08:12;;;;;;;2.50;0.90;;;15.10;99.90;;;;;;5027411;28;20053;-76
2022/06/06 13:11:09;;;;;;;1.52;0.85;;;15.10;99.90;;;;;;5004201;28;20514;-76
2022/06/06 13:13:44;;;;;;;4.53;1.25;;;14.90;99.90;;;;;;5027246;28;20529;-77
2022/06/06 13:16:31;;;;;;;1.52;0.80;;;14.80;99.90;;;;;;5020026;28;20456;-76
2022/06/06 13:19:45;;;;;;;3.42;0.93;;;14.80;99.90;;;;;;5022361;28;20041;-75
2022/06/06 13:22:38;;;;;;;3.85;1.27;;;14.70;99.90;;;;;;5000911;28;20053;-70
2022/06/06 13:25:25;;;;;;;2.75;1.00;;;14.90;99.90;;;;;;5026401;28;20612;-71
2022/06/06 13:27:51;;;;;;;2.72;1.00;;;15.00;99.90;;;;;;5029979;28;20041;-71
2022/06/06 13:30:21;;;;;;;1.52;0.90;;;15.10;99.90;;;;;;5020409;28;20041;-72
2022/06/06 13:33:09;;;;;;;2.67;0.90;;;15.20;99.90;;;;;;5029313;28;20088;-71
2022/06/06 13:35:54;;;;;;;2.33;1.05;;;15.30;99.90;;;;;;5027397;28;20175;-71
2022/06/06 13:38:38;;;;;;;3.25;1.05;;;15.30;99.90;;;;;;5027336;28;20494;-72
2022/06/06 13:41:12;;;;;;;2.63;1.00;;;15.30;99.90;;;;;;5042722;28;20170;-71
2022/06/06 13:43:41;;;;;;;2.67;1.10;;;15.20;99.90;;;;;;5036061;28;20401;-71
2022/06/06 13:46:46;;;;;;;4.90;1.42;;;15.10;99.90;;;;;;5019056;28;20056;-71
2022/06/06 13:49:14;;;;;;;2.63;1.20;;;14.90;99.90;;;;;;5014871;28;20124;-72
2022/06/06 13:52:27;;;;;;;2.63;1.40;;;14.70;99.90;;;;;;5025042;28;20093;-71
2022/06/06 13:54:53;;;;;;;2.38;1.13;;;14.60;99.90;;;;;;4990931;28;20053;-72
2022/06/06 13:57:26;;;;;;;1.92;1.05;;;14.40;99.90;;;;;;5002590;28;20505;-72
2022/06/06 14:00:10;;;;;;;1.40;1.10;;;14.50;99.90;;;;;;5024802;28;20037;-72
2022/06/06 14:03:06;;;;;;;3.58;1.10;;;14.50;99.90;;;;;;5004817;28;20171;-72
2022/06/06 14:05:53;;;;;;;3.05;1.20;;;14.20;99.90;;;;;;5019552;28;20140;-72
2022/06/06 14:08:20;;;;;;;3.58;1.40;;;14.10;99.90;;;;;;5027979;28;20111;-73
2022/06/06 14:10:56;;;;;;;3.20;1.40;;;14.30;99.90;;;;;;5002096;28;20048;-73
2022/06/06 14:13:53;;;;;;;2.20;1.20;;;14.20;99.90;;;;;;5006421;28;20035;-72
2022/06/06 14:16:43;;;;;;;1.85;1.35;;;14.20;99.90;;;;;;5020517;28;20058;-72
2022/06/06 14:19:18;;;;;;;2.35;1.23;;;14.00;99.90;;;;;;5016810;28;20053;-72
2022/06/06 14:21:57;;;;;;;2.58;1.20;;;14.20;99.90;;;;;;5018980;28;20053;-72